Terminal Aerodrome Forecast
Issued by NWS Wilmington, NC

Home | Current Version | Previous Version | Text Only | Print | Product List | Glossary On
Versions: 1 2 3 4 5 6 7 8 9 10 11 12 13
430
FTUS42 KILM 270553 CCA
TAFILM
TAF COR
KILM 270553Z 2706/2806 15005KT P6SM BKN050
     FM271600 15010KT P6SM SCT050
     FM280200 VRB04KT P6SM SCT040=

USA.gov is the U.S. government's official web portal to all federal, state and local government web resources and services.